sensor_id;sensor_type;location;lat;lon;timestamp;pressure;altitude;pressure_sealevel;temperature;humidity
18755;BME280;35061;47.664;9.166;2023-03-13T00:01:25;101298.46;;;8.12;83.81
18755;BME280;35061;47.664;9.166;2023-03-13T00:03:53;101291.95;;;8.12;83.93
18755;BME280;35061;47.664;9.166;2023-03-13T00:06:23;101305.10;;;8.09;84.01
18755;BME280;35061;47.664;9.166;2023-03-13T00:08:53;101302.71;;;8.07;83.94
18755;BME280;35061;47.664;9.166;2023-03-13T00:11:21;101305.55;;;8.07;84.00
18755;BME280;35061;47.664;9.166;2023-03-13T00:13:53;101298.27;;;8.06;84.13
18755;BME280;35061;47.664;9.166;2023-03-13T00:16:21;101295.55;;;8.03;84.16
18755;BME280;35061;47.664;9.166;2023-03-13T00:18:51;101295.65;;;7.99;84.14
18755;BME280;35061;47.664;9.166;2023-03-13T00:21:22;101294.08;;;7.98;84.31
18755;BME280;35061;47.664;9.166;2023-03-13T00:23:50;101297.41;;;7.96;84.18
18755;BME280;35061;47.664;9.166;2023-03-13T00:26:20;101292.94;;;7.95;84.24
18755;BME280;35061;47.664;9.166;2023-03-13T00:28:49;101277.57;;;7.93;84.39
18755;BME280;35061;47.664;9.166;2023-03-13T00:31:23;101281.20;;;7.93;84.38
18755;BME280;35061;47.664;9.166;2023-03-13T00:33:54;101276.33;;;7.94;84.43
18755;BME280;35061;47.664;9.166;2023-03-13T00:36:25;101271.88;;;7.93;84.39
18755;BME280;35061;47.664;9.166;2023-03-13T00:38:54;101262.49;;;7.92;84.39
18755;BME280;35061;47.664;9.166;2023-03-13T00:41:27;101268.22;;;7.92;84.40
18755;BME280;35061;47.664;9.166;2023-03-13T00:43:55;101271.52;;;7.91;84.37
18755;BME280;35061;47.664;9.166;2023-03-13T00:46:25;101276.42;;;7.90;84.29
18755;BME280;35061;47.664;9.166;2023-03-13T00:48:53;101283.71;;;7.91;84.36
18755;BME280;35061;47.664;9.166;2023-03-13T00:51:22;101286.59;;;7.91;84.28
18755;BME280;35061;47.664;9.166;2023-03-13T00:53:54;101284.99;;;7.90;84.33
18755;BME280;35061;47.664;9.166;2023-03-13T00:56:23;101272.79;;;7.90;84.29
18755;BME280;35061;47.664;9.166;2023-03-13T00:58:50;101267.89;;;7.90;84.38
18755;BME280;35061;47.664;9.166;2023-03-13T01:04:02;101265.37;;;7.92;84.58
18755;BME280;35061;47.664;9.166;2023-03-13T01:06:31;101259.65;;;7.92;84.58
18755;BME280;35061;47.664;9.166;2023-03-13T01:08:59;101258.38;;;7.93;84.72
18755;BME280;35061;47.664;9.166;2023-03-13T01:11:31;101261.25;;;7.93;84.69
18755;BME280;35061;47.664;9.166;2023-03-13T01:14:02;101253.96;;;7.92;84.66
18755;BME280;35061;47.664;9.166;2023-03-13T01:16:31;101249.97;;;7.90;84.76
18755;BME280;35061;47.664;9.166;2023-03-13T01:19:03;101251.90;;;7.93;84.82
18755;BME280;35061;47.664;9.166;2023-03-13T01:21:31;101257.26;;;7.91;84.72
18755;BME280;35061;47.664;9.166;2023-03-13T01:23:59;101253.30;;;7.88;84.85
18755;BME280;35061;47.664;9.166;2023-03-13T01:26:27;101255.66;;;7.90;84.96
18755;BME280;35061;47.664;9.166;2023-03-13T01:28:55;101250.46;;;7.88;84.97
18755;BME280;35061;47.664;9.166;2023-03-13T01:31:27;101263.90;;;7.88;85.10
18755;BME280;35061;47.664;9.166;2023-03-13T01:34:00;101257.75;;;7.89;85.26
18755;BME280;35061;47.664;9.166;2023-03-13T01:36:29;101254.55;;;7.87;85.37
18755;BME280;35061;47.664;9.166;2023-03-13T01:38:58;101252.81;;;7.90;85.47
18755;BME280;35061;47.664;9.166;2023-03-13T01:41:28;101249.18;;;7.89;85.37
18755;BME280;35061;47.664;9.166;2023-03-13T01:43:57;101247.91;;;7.90;85.41
18755;BME280;35061;47.664;9.166;2023-03-13T01:46:26;101254.09;;;7.89;85.46
18755;BME280;35061;47.664;9.166;2023-03-13T01:54:30;101234.60;;;7.87;85.53
18755;BME280;35061;47.664;9.166;2023-03-13T01:57:24;101223.65;;;7.86;85.51
18755;BME280;35061;47.664;9.166;2023-03-13T01:59:59;101223.19;;;7.87;85.49
18755;BME280;35061;47.664;9.166;2023-03-13T02:02:28;101222.37;;;7.87;85.45
18755;BME280;35061;47.664;9.166;2023-03-13T02:05:00;101223.97;;;7.88;85.70
18755;BME280;35061;47.664;9.166;2023-03-13T02:07:34;101226.36;;;7.89;85.72
18755;BME280;35061;47.664;9.166;2023-03-13T02:10:06;101224.66;;;7.92;85.77
18755;BME280;35061;47.664;9.166;2023-03-13T02:12:38;101219.27;;;7.94;85.78
18755;BME280;35061;47.664;9.166;2023-03-13T02:15:08;101216.74;;;7.96;85.62
18755;BME280;35061;47.664;9.166;2023-03-13T02:17:37;101207.72;;;7.98;85.69
18755;BME280;35061;47.664;9.166;2023-03-13T02:20:06;101211.35;;;7.98;85.76
18755;BME280;35061;47.664;9.166;2023-03-13T02:27:56;101201.87;;;8.01;85.71
18755;BME280;35061;47.664;9.166;2023-03-13T02:30:27;101197.42;;;8.00;85.87
18755;BME280;35061;47.664;9.166;2023-03-13T02:32:55;101194.94;;;8.02;85.90
18755;BME280;35061;47.664;9.166;2023-03-13T02:35:23;101201.08;;;8.01;85.78
18755;BME280;35061;47.664;9.166;2023-03-13T02:37:54;101191.27;;;8.02;85.80
18755;BME280;35061;47.664;9.166;2023-03-13T02:40:27;101198.11;;;8.04;85.81
18755;BME280;35061;47.664;9.166;2023-03-13T02:42:59;101196.02;;;8.05;85.81
18755;BME280;35061;47.664;9.166;2023-03-13T02:45:27;101187.02;;;8.06;85.87
18755;BME280;35061;47.664;9.166;2023-03-13T02:47:55;101184.47;;;8.08;85.79
18755;BME280;35061;47.664;9.166;2023-03-13T02:50:23;101179.59;;;8.09;85.77
18755;BME280;35061;47.664;9.166;2023-03-13T02:53:00;101171.81;;;8.09;85.67
18755;BME280;35061;47.664;9.166;2023-03-13T02:55:34;101170.08;;;8.12;85.64
18755;BME280;35061;47.664;9.166;2023-03-13T02:58:04;101164.39;;;8.12;85.61
18755;BME280;35061;47.664;9.166;2023-03-13T03:00:32;101164.69;;;8.14;85.66
18755;BME280;35061;47.664;9.166;2023-03-13T03:03:00;101154.88;;;8.15;85.58
18755;BME280;35061;47.664;9.166;2023-03-13T03:05:28;101140.29;;;8.13;85.53
18755;BME280;35061;47.664;9.166;2023-03-13T03:07:56;101144.74;;;8.14;85.44
18755;BME280;35061;47.664;9.166;2023-03-13T03:10:23;101142.35;;;8.13;85.36
18755;BME280;35061;47.664;9.166;2023-03-13T03:12:51;101140.42;;;8.09;85.22
18755;BME280;35061;47.664;9.166;2023-03-13T03:15:19;101144.22;;;8.06;85.21
18755;BME280;35061;47.664;9.166;2023-03-13T03:17:47;101149.94;;;8.06;85.32
18755;BME280;35061;47.664;9.166;2023-03-13T03:20:14;101145.16;;;8.03;85.23
18755;BME280;35061;47.664;9.166;2023-03-13T03:22:42;101143.23;;;8.00;85.24
18755;BME280;35061;47.664;9.166;2023-03-13T03:25:10;101148.60;;;7.98;85.24
18755;BME280;35061;47.664;9.166;2023-03-13T03:27:37;101156.71;;;8.00;85.37
18755;BME280;35061;47.664;9.166;2023-03-13T03:30:05;101147.35;;;7.99;85.33
18755;BME280;35061;47.664;9.166;2023-03-13T03:32:33;101150.69;;;7.98;85.32
18755;BME280;35061;47.664;9.166;2023-03-13T03:35:01;101143.40;;;7.96;85.27
18755;BME280;35061;47.664;9.166;2023-03-13T03:37:29;101139.09;;;7.92;85.19
18755;BME280;35061;47.664;9.166;2023-03-13T03:39:57;101133.03;;;7.90;85.29
18755;BME280;35061;47.664;9.166;2023-03-13T03:42:25;101135.26;;;7.86;85.39
18755;BME280;35061;47.664;9.166;2023-03-13T03:44:52;101132.22;;;7.80;85.47
18755;BME280;35061;47.664;9.166;2023-03-13T03:47:20;101118.09;;;7.76;85.63
18755;BME280;35061;47.664;9.166;2023-03-13T03:49:48;101124.73;;;7.73;85.77
18755;BME280;35061;47.664;9.166;2023-03-13T03:52:16;101122.80;;;7.70;85.83
18755;BME280;35061;47.664;9.166;2023-03-13T03:54:43;101118.35;;;7.69;85.90
18755;BME280;35061;47.664;9.166;2023-03-13T03:57:11;101115.67;;;7.65;85.96
18755;BME280;35061;47.664;9.166;2023-03-13T03:59:39;101109.95;;;7.65;86.06
18755;BME280;35061;47.664;9.166;2023-03-13T04:02:07;101112.79;;;7.65;86.16
18755;BME280;35061;47.664;9.166;2023-03-13T04:04:34;101102.98;;;7.66;86.15
18755;BME280;35061;47.664;9.166;2023-03-13T04:07:02;101107.43;;;7.67;86.24
18755;BME280;35061;47.664;9.166;2023-03-13T04:09:30;101106.16;;;7.68;86.24
18755;BME280;35061;47.664;9.166;2023-03-13T04:11:58;101104.91;;;7.70;86.28
18755;BME280;35061;47.664;9.166;2023-03-13T04:14:26;101105.53;;;7.74;86.32
18755;BME280;35061;47.664;9.166;2023-03-13T04:16:53;101109.52;;;7.76;86.42
18755;BME280;35061;47.664;9.166;2023-03-13T04:19:21;101107.79;;;7.79;86.48
18755;BME280;35061;47.664;9.166;2023-03-13T04:21:49;101099.25;;;7.79;86.50
18755;BME280;35061;47.664;9.166;2023-03-13T04:24:17;101104.16;;;7.78;86.54
18755;BME280;35061;47.664;9.166;2023-03-13T04:26:44;101095.13;;;7.80;86.51
18755;BME280;35061;47.664;9.166;2023-03-13T04:29:12;101086.11;;;7.81;86.44
18755;BME280;35061;47.664;9.166;2023-03-13T04:31:40;101082.48;;;7.81;86.46
18755;BME280;35061;47.664;9.166;2023-03-13T04:34:07;101082.02;;;7.82;86.44
18755;BME280;35061;47.664;9.166;2023-03-13T04:36:35;101082.77;;;7.83;86.49
18755;BME280;35061;47.664;9.166;2023-03-13T04:39:03;101075.80;;;7.84;86.49
18755;BME280;35061;47.664;9.166;2023-03-13T04:41:31;101081.86;;;7.86;86.47
18755;BME280;35061;47.664;9.166;2023-03-13T04:43:58;101080.62;;;7.87;86.37
18755;BME280;35061;47.664;9.166;2023-03-13T04:46:26;101080.13;;;7.89;86.25
18755;BME280;35061;47.664;9.166;2023-03-13T04:48:54;101072.38;;;7.89;86.24
18755;BME280;35061;47.664;9.166;2023-03-13T04:51:22;101064.95;;;7.92;86.26
18755;BME280;35061;47.664;9.166;2023-03-13T04:53:49;101075.88;;;7.93;85.77
18755;BME280;35061;47.664;9.166;2023-03-13T04:56:23;101059.26;;;8.01;84.04
18755;BME280;35061;47.664;9.166;2023-03-13T04:59:10;101054.39;;;8.11;83.16
18755;BME280;35061;47.664;9.166;2023-03-13T05:01:39;101053.48;;;8.23;83.11
18755;BME280;35061;47.664;9.166;2023-03-13T05:04:07;101052.07;;;8.37;80.99
18755;BME280;35061;47.664;9.166;2023-03-13T05:06:35;101057.70;;;8.50;80.51
18755;BME280;35061;47.664;9.166;2023-03-13T05:09:03;101060.87;;;8.62;80.26
18755;BME280;35061;47.664;9.166;2023-03-13T05:11:31;101051.38;;;8.74;77.78
18755;BME280;35061;47.664;9.166;2023-03-13T05:13:59;101050.10;;;8.85;78.97
18755;BME280;35061;47.664;9.166;2023-03-13T05:16:26;101044.38;;;8.94;78.84
18755;BME280;35061;47.664;9.166;2023-03-13T05:18:54;101047.26;;;9.03;77.35
18755;BME280;35061;47.664;9.166;2023-03-13T05:21:22;101041.51;;;9.13;77.65
18755;BME280;35061;47.664;9.166;2023-03-13T05:23:50;101037.55;;;9.19;77.73
18755;BME280;35061;47.664;9.166;2023-03-13T05:26:17;101043.40;;;9.25;76.53
18755;BME280;35061;47.664;9.166;2023-03-13T05:28:45;101048.60;;;9.36;76.43
18755;BME280;35061;47.664;9.166;2023-03-13T05:31:13;101049.06;;;9.44;74.44
18755;BME280;35061;47.664;9.166;2023-03-13T05:33:41;101043.50;;;9.49;74.54
18755;BME280;35061;47.664;9.166;2023-03-13T05:36:08;101036.66;;;9.56;74.75
18755;BME280;35061;47.664;9.166;2023-03-13T05:38:36;101031.11;;;9.62;73.71
18755;BME280;35061;47.664;9.166;2023-03-13T05:41:04;101034.08;;;9.68;74.23
18755;BME280;35061;47.664;9.166;2023-03-13T05:43:32;101036.27;;;9.73;73.45
18755;BME280;35061;47.664;9.166;2023-03-13T05:45:59;101051.51;;;9.79;73.45
18755;BME280;35061;47.664;9.166;2023-03-13T05:48:27;101040.69;;;9.83;73.55
18755;BME280;35061;47.664;9.166;2023-03-13T05:50:55;101051.97;;;9.87;73.69
18755;BME280;35061;47.664;9.166;2023-03-13T05:53:22;101043.70;;;9.89;73.31
18755;BME280;35061;47.664;9.166;2023-03-13T05:55:50;101036.21;;;9.91;73.14
18755;BME280;35061;47.664;9.166;2023-03-13T05:58:18;101036.99;;;9.92;73.44
18755;BME280;35061;47.664;9.166;2023-03-13T06:00:46;101039.38;;;9.94;73.37
18755;BME280;35061;47.664;9.166;2023-03-13T06:03:15;101034.48;;;9.94;73.60
18755;BME280;35061;47.664;9.166;2023-03-13T06:05:42;101040.20;;;9.94;73.33
18755;BME280;35061;47.664;9.166;2023-03-13T06:08:10;101040.95;;;9.95;73.27
18755;BME280;35061;47.664;9.166;2023-03-13T06:10:38;101032.68;;;9.97;72.80
18755;BME280;35061;47.664;9.166;2023-03-13T06:13:05;101043.17;;;10.00;73.21
18755;BME280;35061;47.664;9.166;2023-03-13T06:15:55;101028.88;;;10.00;73.33
18755;BME280;35061;47.664;9.166;2023-03-13T06:18:24;101030.45;;;10.01;72.75
18755;BME280;35061;47.664;9.166;2023-03-13T06:21:00;101038.53;;;10.02;73.07
18755;BME280;35061;47.664;9.166;2023-03-13T06:23:28;101041.41;;;10.02;72.08
18755;BME280;35061;47.664;9.166;2023-03-13T06:25:56;101032.16;;;10.08;72.81
18755;BME280;35061;47.664;9.166;2023-03-13T06:28:24;101035.81;;;10.08;72.81
18755;BME280;35061;47.664;9.166;2023-03-13T06:30:51;101033.27;;;10.10;71.04
18755;BME280;35061;47.664;9.166;2023-03-13T06:33:20;101029.14;;;10.11;72.47
18755;BME280;35061;47.664;9.166;2023-03-13T06:35:48;101031.01;;;10.14;73.08
18755;BME280;35061;47.664;9.166;2023-03-13T06:38:26;101037.22;;;10.13;73.85
18755;BME280;35061;47.664;9.166;2023-03-13T06:40:54;101034.18;;;10.16;73.79
18755;BME280;35061;47.664;9.166;2023-03-13T06:43:22;101034.18;;;10.16;73.78
18755;BME280;35061;47.664;9.166;2023-03-13T06:45:50;101032.41;;;10.19;74.10
18755;BME280;35061;47.664;9.166;2023-03-13T06:48:18;101027.48;;;10.19;74.85
18755;BME280;35061;47.664;9.166;2023-03-13T06:50:46;101030.32;;;10.19;75.38
18755;BME280;35061;47.664;9.166;2023-03-13T06:53:17;101039.25;;;10.22;75.87
18755;BME280;35061;47.664;9.166;2023-03-13T06:55:45;101033.20;;;10.19;76.55
18755;BME280;35061;47.664;9.166;2023-03-13T06:58:14;101048.30;;;10.20;77.17
18755;BME280;35061;47.664;9.166;2023-03-13T07:00:57;101047.49;;;10.19;77.29
18755;BME280;35061;47.664;9.166;2023-03-13T07:03:25;101049.12;;;10.21;77.22
18755;BME280;35061;47.664;9.166;2023-03-13T07:05:57;101047.33;;;10.23;77.19
18755;BME280;35061;47.664;9.166;2023-03-13T07:08:25;101038.86;;;10.29;76.50
18755;BME280;35061;47.664;9.166;2023-03-13T07:10:57;101034.08;;;10.35;76.27
18755;BME280;35061;47.664;9.166;2023-03-13T07:13:25;101023.06;;;10.43;76.37
18755;BME280;35061;47.664;9.166;2023-03-13T07:15:53;101026.85;;;10.49;75.83
18755;BME280;35061;47.664;9.166;2023-03-13T07:18:21;101021.55;;;10.57;75.65
18755;BME280;35061;47.664;9.166;2023-03-13T07:20:54;101022.48;;;10.63;75.89
18755;BME280;35061;47.664;9.166;2023-03-13T07:23:23;101021.79;;;10.68;76.32
18755;BME280;35061;47.664;9.166;2023-03-13T07:25:58;101020.67;;;10.66;76.49
18755;BME280;35061;47.664;9.166;2023-03-13T07:28:27;101002.59;;;10.59;76.17
18755;BME280;35061;47.664;9.166;2023-03-13T07:31:11;101011.75;;;10.49;76.48
18755;BME280;35061;47.664;9.166;2023-03-13T07:33:40;101004.52;;;10.78;77.68
18755;BME280;35061;47.664;9.166;2023-03-13T07:36:08;101004.91;;;10.85;77.90
18755;BME280;35061;47.664;9.166;2023-03-13T07:38:36;101007.95;;;10.82;76.13
18755;BME280;35061;47.664;9.166;2023-03-13T07:41:04;101002.66;;;10.74;75.41
18755;BME280;35061;47.664;9.166;2023-03-13T07:43:32;101012.89;;;10.66;76.21
18755;BME280;35061;47.664;9.166;2023-03-13T07:46:04;101012.89;;;10.66;75.77
18755;BME280;35061;47.664;9.166;2023-03-13T07:48:37;101004.36;;;10.57;75.71
18755;BME280;35061;47.664;9.166;2023-03-13T07:51:10;101009.98;;;10.51;75.61
18755;BME280;35061;47.664;9.166;2023-03-13T07:53:38;101005.05;;;10.52;75.93
18755;BME280;35061;47.664;9.166;2023-03-13T07:56:08;101015.21;;;10.53;76.07
18755;BME280;35061;47.664;9.166;2023-03-13T07:58:38;101021.55;;;10.57;76.31
18755;BME280;35061;47.664;9.166;2023-03-13T08:01:15;101023.95;;;10.58;76.14
18755;BME280;35061;47.664;9.166;2023-03-13T08:03:44;101030.84;;;10.67;75.83
18755;BME280;35061;47.664;9.166;2023-03-13T08:06:21;101021.88;;;10.74;75.97
18755;BME280;35061;47.664;9.166;2023-03-13T08:08:50;101014.89;;;10.75;75.66
18755;BME280;35061;47.664;9.166;2023-03-13T08:11:21;101018.16;;;10.83;75.94
18755;BME280;35061;47.664;9.166;2023-03-13T08:13:52;101015.70;;;10.91;75.89
18755;BME280;35061;47.664;9.166;2023-03-13T08:16:22;101017.11;;;10.95;75.84
18755;BME280;35061;47.664;9.166;2023-03-13T08:18:53;101010.96;;;11.02;75.74
18755;BME280;35061;47.664;9.166;2023-03-13T08:21:24;101025.22;;;11.12;75.63
18755;BME280;35061;47.664;9.166;2023-03-13T08:23:53;101024.63;;;11.23;75.39
18755;BME280;35061;47.664;9.166;2023-03-13T08:26:23;101014.46;;;11.37;75.14
18755;BME280;35061;47.664;9.166;2023-03-13T08:28:56;101008.51;;;11.55;74.80
18755;BME280;35061;47.664;9.166;2023-03-13T08:31:30;101007.79;;;11.76;73.75
18755;BME280;35061;47.664;9.166;2023-03-13T08:33:58;100987.98;;;11.93;71.42
18755;BME280;35061;47.664;9.166;2023-03-13T08:36:29;100999.23;;;12.11;72.19
18755;BME280;35061;47.664;9.166;2023-03-13T08:39:00;100982.74;;;12.27;67.11
18755;BME280;35061;47.664;9.166;2023-03-13T08:41:31;100987.38;;;12.45;69.20
18755;BME280;35061;47.664;9.166;2023-03-13T08:44:00;100980.88;;;12.65;67.45
18755;BME280;35061;47.664;9.166;2023-03-13T08:46:29;100981.11;;;12.88;67.42
18755;BME280;35061;47.664;9.166;2023-03-13T08:48:58;100973.16;;;13.04;63.11
18755;BME280;35061;47.664;9.166;2023-03-13T08:51:27;100969.34;;;13.12;61.79
18755;BME280;35061;47.664;9.166;2023-03-13T08:53:55;100966.52;;;13.18;61.22
18755;BME280;35061;47.664;9.166;2023-03-13T08:56:25;100975.98;;;13.24;61.48
18755;BME280;35061;47.664;9.166;2023-03-13T08:58:57;100964.53;;;13.30;60.28
18755;BME280;35061;47.664;9.166;2023-03-13T09:01:27;100970.32;;;13.36;59.44
18755;BME280;35061;47.664;9.166;2023-03-13T09:03:55;100959.95;;;13.44;60.16
18755;BME280;35061;47.664;9.166;2023-03-13T09:06:24;100961.81;;;13.47;60.79
18755;BME280;35061;47.664;9.166;2023-03-13T09:08:52;100954.69;;;13.43;60.76
18755;BME280;35061;47.664;9.166;2023-03-13T09:11:20;100956.19;;;13.38;59.86
18755;BME280;35061;47.664;9.166;2023-03-13T09:13:49;100946.58;;;13.41;61.87
18755;BME280;35061;47.664;9.166;2023-03-13T09:16:23;100942.69;;;13.44;61.87
18755;BME280;35061;47.664;9.166;2023-03-13T09:18:52;100943.24;;;13.48;60.81
18755;BME280;35061;47.664;9.166;2023-03-13T09:21:22;100943.54;;;13.50;61.28
18755;BME280;35061;47.664;9.166;2023-03-13T09:23:51;100931.01;;;13.53;60.57
18755;BME280;35061;47.664;9.166;2023-03-13T09:26:20;100925.81;;;13.63;61.74
18755;BME280;35061;47.664;9.166;2023-03-13T09:28:50;100926.17;;;13.71;59.98
18755;BME280;35061;47.664;9.166;2023-03-13T09:31:29;100933.79;;;13.80;61.12
18755;BME280;35061;47.664;9.166;2023-03-13T09:33:58;100916.55;;;13.86;58.58
18755;BME280;35061;47.664;9.166;2023-03-13T09:36:27;100923.42;;;13.94;57.49
18755;BME280;35061;47.664;9.166;2023-03-13T09:38:57;100920.02;;;14.01;58.63
18755;BME280;35061;47.664;9.166;2023-03-13T09:41:42;100918.48;;;14.06;57.27
18755;BME280;35061;47.664;9.166;2023-03-13T09:49:39;100892.62;;;14.23;56.48
18755;BME280;35061;47.664;9.166;2023-03-13T09:52:17;100882.74;;;14.30;55.01
18755;BME280;35061;47.664;9.166;2023-03-13T09:54:52;100881.70;;;14.38;54.75
18755;BME280;35061;47.664;9.166;2023-03-13T09:58:01;100882.26;;;14.48;54.87
18755;BME280;35061;47.664;9.166;2023-03-13T10:00:37;100884.64;;;14.61;55.52
18755;BME280;35061;47.664;9.166;2023-03-13T10:05:45;100863.48;;;14.87;55.60
18755;BME280;35061;47.664;9.166;2023-03-13T10:08:26;100863.48;;;14.93;55.69
18755;BME280;35061;47.664;9.166;2023-03-13T10:11:11;100857.99;;;15.01;54.83
18755;BME280;35061;47.664;9.166;2023-03-13T10:14:22;100849.33;;;15.06;54.87
18755;BME280;35061;47.664;9.166;2023-03-13T10:17:15;100845.92;;;15.14;54.66
18755;BME280;35061;47.664;9.166;2023-03-13T10:19:53;100837.52;;;15.21;54.99
18755;BME280;35061;47.664;9.166;2023-03-13T10:22:24;100837.26;;;15.31;55.00
18755;BME280;35061;47.664;9.166;2023-03-13T10:24:57;100828.82;;;15.39;55.32
18755;BME280;35061;47.664;9.166;2023-03-13T10:27:26;100838.02;;;15.43;54.91
18755;BME280;35061;47.664;9.166;2023-03-13T10:29:53;100837.72;;;15.52;54.50
18755;BME280;35061;47.664;9.166;2023-03-13T10:32:21;100832.98;;;15.60;54.54
18755;BME280;35061;47.664;9.166;2023-03-13T10:34:52;100826.89;;;15.75;54.09
18755;BME280;35061;47.664;9.166;2023-03-13T10:37:25;100821.59;;;15.85;53.19
18755;BME280;35061;47.664;9.166;2023-03-13T10:39:53;100827.65;;;15.99;54.05
18755;BME280;35061;47.664;9.166;2023-03-13T10:42:31;100807.93;;;15.97;53.60
18755;BME280;35061;47.664;9.166;2023-03-13T10:45:04;100807.90;;;16.03;53.16
18755;BME280;35061;47.664;9.166;2023-03-13T10:47:33;100791.61;;;16.06;52.89
18755;BME280;35061;47.664;9.166;2023-03-13T10:50:03;100792.92;;;16.10;52.42
18755;BME280;35061;47.664;9.166;2023-03-13T10:52:42;100775.55;;;16.16;53.83
18755;BME280;35061;47.664;9.166;2023-03-13T10:55:18;100779.41;;;16.24;53.36
18755;BME280;35061;47.664;9.166;2023-03-13T10:58:01;100780.43;;;16.32;52.66
18755;BME280;35061;47.664;9.166;2023-03-13T11:03:01;100751.42;;;16.44;51.48
18755;BME280;35061;47.664;9.166;2023-03-13T11:05:38;100750.64;;;16.49;52.63
18755;BME280;35061;47.664;9.166;2023-03-13T11:08:27;100736.38;;;16.57;52.81
18755;BME280;35061;47.664;9.166;2023-03-13T11:10:58;100742.53;;;16.72;51.55
18755;BME280;35061;47.664;9.166;2023-03-13T11:13:33;100729.61;;;16.79;52.31
18755;BME280;35061;47.664;9.166;2023-03-13T11:16:21;100730.10;;;16.83;50.92
18755;BME280;35061;47.664;9.166;2023-03-13T11:19:03;100723.73;;;16.91;52.02
18755;BME280;35061;47.664;9.166;2023-03-13T11:30:07;100690.05;;;17.18;51.54
18755;BME280;35061;47.664;9.166;2023-03-13T11:32:59;100685.47;;;17.28;53.09
18755;BME280;35061;47.664;9.166;2023-03-13T11:38:41;100677.48;;;17.35;51.62
18755;BME280;35061;47.664;9.166;2023-03-13T11:47:47;100662.87;;;17.46;50.96
18755;BME280;35061;47.664;9.166;2023-03-13T11:53:13;100659.11;;;17.70;52.47
18755;BME280;35061;47.664;9.166;2023-03-13T11:55:58;100648.32;;;17.71;51.05
18755;BME280;35061;47.664;9.166;2023-03-13T11:58:59;100649.66;;;17.70;50.72
18755;BME280;35061;47.664;9.166;2023-03-13T12:01:54;100636.41;;;17.75;50.51
18755;BME280;35061;47.664;9.166;2023-03-13T12:04:34;100642.23;;;17.75;50.67
18755;BME280;35061;47.664;9.166;2023-03-13T12:10:11;100613.00;;;17.72;50.59
18755;BME280;35061;47.664;9.166;2023-03-13T12:15:53;100615.69;;;17.70;51.40
18755;BME280;35061;47.664;9.166;2023-03-13T12:18:34;100602.99;;;17.74;50.79
18755;BME280;35061;47.664;9.166;2023-03-13T12:24:03;100593.91;;;17.83;50.86
18755;BME280;35061;47.664;9.166;2023-03-13T12:29:31;100567.09;;;17.96;51.58
18755;BME280;35061;47.664;9.166;2023-03-13T12:32:13;100548.55;;;18.05;50.81
18755;BME280;35061;47.664;9.166;2023-03-13T12:35:17;100540.08;;;18.07;49.78
18755;BME280;35061;47.664;9.166;2023-03-13T12:37:59;100528.96;;;18.11;50.68
18755;BME280;35061;47.664;9.166;2023-03-13T12:40:36;100528.84;;;18.17;50.61
18755;BME280;35061;47.664;9.166;2023-03-13T12:51:22;100508.91;;;18.40;49.96
18755;BME280;35061;47.664;9.166;2023-03-13T12:56:46;100486.16;;;18.58;50.27
18755;BME280;35061;47.664;9.166;2023-03-13T12:59:22;100482.04;;;18.66;50.41
18755;BME280;35061;47.664;9.166;2023-03-13T13:01:54;100467.62;;;18.74;49.96
18755;BME280;35061;47.664;9.166;2023-03-13T13:04:26;100465.39;;;18.80;50.26
18755;BME280;35061;47.664;9.166;2023-03-13T13:07:06;100454.87;;;18.91;50.03
18755;BME280;35061;47.664;9.166;2023-03-13T13:12:28;100438.32;;;18.99;48.32
18755;BME280;35061;47.664;9.166;2023-03-13T13:15:00;100438.80;;;19.03;48.66
18755;BME280;35061;47.664;9.166;2023-03-13T13:17:38;100424.29;;;19.03;49.35
18755;BME280;35061;47.664;9.166;2023-03-13T13:25:52;100380.90;;;19.19;49.33
18755;BME280;35061;47.664;9.166;2023-03-13T13:28:32;100383.25;;;19.20;49.43
18755;BME280;35061;47.664;9.166;2023-03-13T13:31:00;100372.00;;;19.17;47.58
18755;BME280;35061;47.664;9.166;2023-03-13T13:38:40;100362.87;;;19.13;44.84
18755;BME280;35061;47.664;9.166;2023-03-13T13:46:21;100349.99;;;19.21;46.83
18755;BME280;35061;47.664;9.166;2023-03-13T13:51:39;100336.16;;;19.35;45.54
18755;BME280;35061;47.664;9.166;2023-03-13T13:56:49;100327.98;;;19.55;45.18
18755;BME280;35061;47.664;9.166;2023-03-13T13:59:28;100317.95;;;19.56;44.33
18755;BME280;35061;47.664;9.166;2023-03-13T14:02:30;100314.68;;;19.60;44.17
18755;BME280;35061;47.664;9.166;2023-03-13T14:05:14;100294.41;;;19.67;44.55
18755;BME280;35061;47.664;9.166;2023-03-13T14:08:05;100299.05;;;19.71;44.51
18755;BME280;35061;47.664;9.166;2023-03-13T14:10:40;100292.87;;;19.74;43.97
18755;BME280;35061;47.664;9.166;2023-03-13T14:15:43;100284.01;;;19.80;44.55
18755;BME280;35061;47.664;9.166;2023-03-13T14:18:29;100277.83;;;19.84;45.17
18755;BME280;35061;47.664;9.166;2023-03-13T14:20:59;100275.11;;;19.86;44.24
18755;BME280;35061;47.664;9.166;2023-03-13T14:23:38;100269.32;;;19.57;44.11
18755;BME280;35061;47.664;9.166;2023-03-13T14:28:42;100263.34;;;18.83;45.39
18755;BME280;35061;47.664;9.166;2023-03-13T14:31:20;100269.20;;;18.48;45.64
18755;BME280;35061;47.664;9.166;2023-03-13T14:33:49;100267.79;;;18.07;46.19
18755;BME280;35061;47.664;9.166;2023-03-13T14:36:16;100263.11;;;17.63;46.83
18755;BME280;35061;47.664;9.166;2023-03-13T14:38:56;100265.10;;;17.28;47.62
18755;BME280;35061;47.664;9.166;2023-03-13T14:41:36;100263.96;;;17.04;48.48
18755;BME280;35061;47.664;9.166;2023-03-13T14:44:23;100265.10;;;16.82;48.99
18755;BME280;35061;47.664;9.166;2023-03-13T14:46:54;100267.33;;;16.56;49.70
18755;BME280;35061;47.664;9.166;2023-03-13T14:49:25;100253.17;;;16.39;50.09
18755;BME280;35061;47.664;9.166;2023-03-13T14:52:02;100245.06;;;16.18;50.60
18755;BME280;35061;47.664;9.166;2023-03-13T14:54:35;100242.18;;;15.99;51.05
18755;BME280;35061;47.664;9.166;2023-03-13T14:57:14;100235.05;;;15.81;51.59